Lemhi County Airport Salmon US
ICAO: KSMN
IATA: SMN
Category: Medium
Scheduled Services: No

Elevation: 4043 ft
TransAlt. 18000 ft.

Airport Communications:
AWOS 3:135.075
SALT LAKE CITY CNTR:132.4
BOISE RDO:122.55
CTAF/UNICOM:122.8

KSMN Zoom In..

If you have problems with the map follow the link
https://www.worldairports.se/pages/airport.php?
ICAO=KSMN

Runways:

(A) RW 17 length 5150 ft width 60 ft
---- / hdg 172

(B) RW 35 length 5150 ft width 60 ft
---- / hdg 352

Location; KSMN
Day. 21 / Time. 05.56 Zulu
* Altimeter: 30.08
* Temperature: -09° c. -15.8°f.
* Wind from: 000° Speed 00 kn.
Dewpoint: -11° c.
Visibility: 10 Statute Miles.
Clouds: Overcast 8000 ft.

KSMN 210556Z AUTO 00000KT 10SM OVC080 M09/M11 A3008 RMK AO2 SLP249 T10891106 11056 21094 56006 FZRANO


Wind - Calm.

 
 
jpsmedia worldairports.se 2020   terms of use